Time;durP1;ratioP1;P1;durP2;ratioP2;P2;SDS_P1;SDS_P2;PMS_P1;PMS_P2;Temp;Humidity;BMP_temperature;BMP_pressure;BME280_temperature;BME280_humidity;BME280_pressure;Samples;Min_cycle;Max_cycle;Signal;HPM_P1;HPM_P2
2023/05/10 00:00:54;;;;;;;7.25;6.30;;;;;;;10.51;78.46;94865.28;4212603;28;20466;-59
2023/05/10 00:02:56;;;;;;;8.05;6.82;;;;;;;10.43;78.73;94864.25;4214432;28;20036;-60
2023/05/10 00:04:58;;;;;;;8.50;6.32;;;;;;;10.46;79.18;94865.75;4212763;28;20114;-60
2023/05/10 00:06:59;;;;;;;7.53;6.68;;;;;;;10.44;78.69;94863.28;4211981;28;20376;-59
2023/05/10 00:09:01;;;;;;;7.95;7.15;;;;;;;10.51;78.51;94866.09;4206325;28;20055;-59
2023/05/10 00:11:02;;;;;;;7.70;6.90;;;;;;;10.54;78.58;94860.56;4206695;28;20047;-61
2023/05/10 00:13:04;;;;;;;8.20;7.40;;;;;;;10.40;77.83;94859.31;4216383;28;20056;-59
2023/05/10 00:15:07;;;;;;;7.80;6.90;;;;;;;10.40;78.12;94861.94;4217324;28;20074;-61
2023/05/10 00:17:08;;;;;;;7.78;6.97;;;;;;;10.45;78.13;94851.84;4218702;28;20059;-60
2023/05/10 00:19:10;;;;;;;7.88;7.03;;;;;;;10.49;78.60;94860.19;4225577;28;20052;-59
2023/05/10 00:21:12;;;;;;;8.13;6.50;;;;;;;10.50;77.97;94863.66;4213907;28;20044;-60
2023/05/10 00:23:13;;;;;;;6.90;6.30;;;;;;;10.56;78.27;94856.00;4224703;28;20074;-61
2023/05/10 00:25:15;;;;;;;7.00;6.30;;;;;;;10.62;78.03;94850.09;4220910;28;20432;-60
2023/05/10 00:27:16;;;;;;;7.47;6.50;;;;;;;10.66;77.99;94850.63;4211751;28;20089;-59
2023/05/10 00:29:19;;;;;;;7.05;6.35;;;;;;;10.65;76.99;94856.84;4228065;28;20048;-58
2023/05/10 00:31:21;;;;;;;7.43;6.72;;;;;;;10.63;77.17;94854.38;4212520;28;20055;-59
2023/05/10 00:33:22;;;;;;;7.30;6.43;;;;;;;10.65;77.27;94851.63;4212417;28;20088;-59
2023/05/10 00:35:24;;;;;;;7.35;6.65;;;;;;;10.62;77.45;94850.09;4221726;28;20052;-59
2023/05/10 00:37:26;;;;;;;10.57;6.65;;;;;;;10.63;77.47;94845.72;4215736;28;20078;-58
2023/05/10 00:39:28;;;;;;;7.28;6.57;;;;;;;10.66;77.48;94848.00;4206429;28;20167;-59
2023/05/10 00:41:33;;;;;;;7.28;6.57;;;;;;;10.64;77.18;94852.56;4220555;28;20047;-59
2023/05/10 00:43:34;;;;;;;7.70;6.90;;;;;;;10.59;77.43;94845.19;4217879;28;20079;-57
2023/05/10 00:45:37;;;;;;;7.22;6.57;;;;;;;10.54;77.16;94842.22;4216738;28;20066;-59
2023/05/10 00:47:39;;;;;;;7.40;6.70;;;;;;;10.50;76.93;94840.88;4214476;28;20192;-58
2023/05/10 00:49:41;;;;;;;7.90;6.50;;;;;;;10.39;77.04;94836.72;4211189;28;20529;-58
2023/05/10 00:51:44;;;;;;;8.02;7.28;;;;;;;10.42;77.59;94843.47;4217426;28;20448;-57
2023/05/10 00:53:46;;;;;;;8.55;7.75;;;;;;;10.31;77.82;94833.25;4210854;28;20046;-55
2023/05/10 00:55:48;;;;;;;9.82;7.03;;;;;;;10.14;77.83;94837.50;4213705;28;20051;-59
2023/05/10 00:57:50;;;;;;;8.60;7.80;;;;;;;10.16;78.71;94835.56;4226891;28;20054;-59
2023/05/10 00:59:51;;;;;;;8.57;7.68;;;;;;;10.24;78.65;94831.22;4223350;28;20072;-60
2023/05/10 01:01:53;;;;;;;7.95;7.25;;;;;;;10.24;77.90;94833.81;4217310;28;20512;-60
2023/05/10 01:03:55;;;;;;;8.77;7.97;;;;;;;10.24;77.74;94830.38;4226870;28;20192;-58
2023/05/10 01:05:57;;;;;;;8.95;8.07;;;;;;;10.19;77.73;94827.41;4223225;28;20579;-58
2023/05/10 01:07:59;;;;;;;7.80;7.10;;;;;;;10.22;77.21;94829.72;4209469;28;20056;-58
2023/05/10 01:10:00;;;;;;;7.70;6.90;;;;;;;10.22;77.00;94829.72;4222995;28;20051;-58
2023/05/10 01:12:06;;;;;;;9.52;7.68;;;;;;;10.17;76.99;94827.53;4213380;28;20112;-58
2023/05/10 01:14:08;;;;;;;8.85;7.95;;;;;;;10.11;77.79;94833.41;4214696;28;20421;-60
2023/05/10 01:16:10;;;;;;;7.80;7.10;;;;;;;10.07;77.40;94834.69;4212429;28;20130;-58
2023/05/10 01:18:12;;;;;;;8.85;7.93;;;;;;;10.07;77.65;94829.44;4219229;28;20126;-58
2023/05/10 01:20:14;;;;;;;9.27;8.27;;;;;;;9.99;78.00;94824.97;4212592;28;20074;-61
2023/05/10 01:22:41;;;;;;;8.68;7.75;;;;;;;9.96;77.73;94827.91;4217772;28;20051;-58
2023/05/10 01:24:54;;;;;;;8.48;7.60;;;;;;;9.99;77.56;94822.34;4226076;28;20455;-58
2023/05/10 01:27:17;;;;;;;9.82;7.85;;;;;;;9.97;78.06;94813.00;4203988;28;20043;-59
2023/05/10 01:29:35;;;;;;;8.60;7.80;;;;;;;10.02;78.10;94815.97;4221800;28;20128;-59
2023/05/10 01:32:08;;;;;;;9.30;8.02;;;;;;;9.95;77.93;94828.84;4215857;28;20044;-59
2023/05/10 01:34:13;;;;;;;9.10;8.20;;;;;;;9.90;77.68;94817.22;4205932;28;20710;-59
2023/05/10 01:36:53;;;;;;;8.98;8.05;;;;;;;9.64;78.56;94812.75;4220001;28;20056;-58
2023/05/10 01:39:03;;;;;;;8.73;7.82;;;;;;;9.71;79.04;94813.78;4211752;28;20068;-59
2023/05/10 01:41:28;;;;;;;8.07;7.35;;;;;;;9.62;78.61;94814.69;4213432;28;20052;-59
2023/05/10 01:43:33;;;;;;;7.80;6.95;;;;;;;9.68;77.81;94808.03;4206078;28;20498;-59
2023/05/10 01:46:10;;;;;;;7.47;6.68;;;;;;;9.72;77.61;94804.13;4208174;28;20044;-57
2023/05/10 01:48:14;;;;;;;7.20;6.55;;;;;;;9.77;77.80;94801.91;4216183;28;20048;-58
2023/05/10 01:50:19;;;;;;;7.40;6.65;;;;;;;9.78;77.75;94800.94;4223834;28;20047;-54
2023/05/10 01:52:26;;;;;;;6.97;5.85;;;;;;;9.81;77.07;94795.41;4217914;28;20048;-58
2023/05/10 01:54:28;;;;;;;6.47;5.78;;;;;;;9.84;76.78;94793.28;4223229;28;20048;-59
2023/05/10 01:56:32;;;;;;;7.00;6.32;;;;;;;9.83;77.46;94801.31;4207979;28;20051;-59
2023/05/10 01:58:35;;;;;;;6.53;5.25;;;;;;;9.79;76.70;94798.16;4224591;28;20102;-61
2023/05/10 02:00:37;;;;;;;6.82;5.85;;;;;;;9.81;76.82;94808.50;4224411;28;20085;-59
2023/05/10 02:02:42;;;;;;;6.35;5.68;;;;;;;9.79;76.41;94799.97;4214014;28;20096;-61
2023/05/10 02:04:45;;;;;;;5.55;5.05;;;;;;;9.72;76.00;94793.69;4227348;28;20084;-59
2023/05/10 02:06:48;;;;;;;6.18;4.78;;;;;;;9.61;76.17;94799.97;4216499;28;20052;-58
2023/05/10 02:08:50;;;;;;;6.53;5.93;;;;;;;9.61;76.54;94797.34;4227930;28;20073;-60
2023/05/10 02:10:54;;;;;;;5.15;4.68;;;;;;;9.59;76.34;94804.53;4207597;28;20121;-59
2023/05/10 02:12:58;;;;;;;6.40;4.97;;;;;;;9.55;76.14;94798.78;4226841;28;20134;-59
2023/05/10 02:15:02;;;;;;;5.32;4.82;;;;;;;9.51;75.44;94796.63;4227442;28;20416;-60
2023/05/10 02:17:05;;;;;;;5.32;4.82;;;;;;;9.38;75.98;94797.81;4216261;28;20039;-57
2023/05/10 02:19:08;;;;;;;5.20;4.70;;;;;;;9.19;75.75;94795.34;4223105;28;20073;-58
2023/05/10 02:21:10;;;;;;;5.82;5.22;;;;;;;9.28;76.18;94802.28;4202424;28;20055;-58
2023/05/10 02:23:13;;;;;;;6.18;4.72;;;;;;;9.13;74.78;94796.75;4222040;28;20048;-59
2023/05/10 02:25:15;;;;;;;5.55;5.05;;;;;;;9.12;74.75;94807.34;4223665;28;20127;-58
2023/05/10 02:27:17;;;;;;;6.70;4.97;;;;;;;9.07;73.49;94810.41;4220734;28;20165;-59
2023/05/10 02:29:19;;;;;;;6.25;4.75;;;;;;;8.98;73.84;94800.84;4224406;28;20063;-58
2023/05/10 02:31:21;;;;;;;7.13;4.78;;;;;;;8.84;73.19;94801.31;4221400;28;20539;-58
2023/05/10 02:33:24;;;;;;;5.50;4.80;;;;;;;8.75;72.82;94803.00;4211449;28;20498;-60
2023/05/10 02:35:26;;;;;;;7.18;5.55;;;;;;;8.73;73.46;94802.34;4212557;28;20502;-59
2023/05/10 02:37:28;;;;;;;10.73;5.47;;;;;;;8.73;73.38;94802.34;4211505;28;20063;-60
2023/05/10 02:39:30;;;;;;;6.72;5.55;;;;;;;8.73;72.28;94802.34;4224775;28;20047;-59
2023/05/10 02:41:32;;;;;;;6.57;4.78;;;;;;;8.59;70.82;94795.81;4229405;28;20094;-59
2023/05/10 02:43:35;;;;;;;6.78;5.50;;;;;;;8.61;71.55;94793.88;4228911;28;20040;-59
2023/05/10 02:45:38;;;;;;;9.20;5.28;;;;;;;8.60;72.31;94784.38;4227661;28;20387;-58
2023/05/10 02:47:40;;;;;;;6.70;5.22;;;;;;;8.60;72.07;94793.06;4224903;28;20048;-57
2023/05/10 02:49:42;;;;;;;6.72;5.57;;;;;;;8.65;70.87;94794.41;4216056;28;20052;-58
2023/05/10 02:51:49;;;;;;;13.55;5.32;;;;;;;8.70;71.06;94786.97;4227034;28;20135;-54
2023/05/10 02:53:53;;;;;;;6.65;5.53;;;;;;;8.70;70.48;94802.63;4216096;28;20043;-58
2023/05/10 02:55:58;;;;;;;6.50;5.30;;;;;;;8.66;70.83;94799.47;4211341;28;20113;-59
2023/05/10 02:58:01;;;;;;;8.35;5.72;;;;;;;8.64;71.05;94808.44;4214031;28;20072;-61
2023/05/10 03:00:03;;;;;;;5.95;5.22;;;;;;;8.37;70.31;94796.97;4215305;28;20517;-59
2023/05/10 03:02:05;;;;;;;9.45;5.45;;;;;;;8.45;72.07;94796.28;4214830;28;20048;-61
2023/05/10 03:04:07;;;;;;;8.02;6.20;;;;;;;8.34;71.32;94800.66;4213403;28;20493;-60
2023/05/10 03:06:09;;;;;;;6.90;6.20;;;;;;;8.36;71.60;94796.13;4216891;28;20113;-60
2023/05/10 03:08:11;;;;;;;8.15;6.45;;;;;;;8.29;72.37;94799.47;4214132;28;20048;-59
2023/05/10 03:10:12;;;;;;;7.70;5.80;;;;;;;8.28;72.51;94805.66;4229024;28;20446;-61
2023/05/10 03:12:33;;;;;;;6.93;6.20;;;;;;;8.23;72.44;94800.03;4228409;28;20277;-60
2023/05/10 03:14:54;;;;;;;9.18;5.95;;;;;;;8.30;72.09;94801.09;4226175;28;20139;-59
2023/05/10 03:17:22;;;;;;;7.32;5.95;;;;;;;8.33;71.58;94795.63;4223347;28;20117;-60
2023/05/10 03:19:29;;;;;;;6.25;5.65;;;;;;;8.18;71.77;94795.25;4215668;28;20089;-58
2023/05/10 03:21:31;;;;;;;7.47;6.15;;;;;;;8.17;72.09;94794.44;4217808;28;20074;-59
2023/05/10 03:24:02;;;;;;;8.52;5.57;;;;;;;8.01;71.57;94807.22;4220943;28;20139;-62
2023/05/10 03:26:04;;;;;;;7.00;5.72;;;;;;;7.98;72.40;94795.31;4220616;28;20054;-59
2023/05/10 03:28:07;;;;;;;6.30;5.65;;;;;;;7.94;72.08;94816.59;4222250;28;20061;-60
2023/05/10 03:30:11;;;;;;;8.18;5.78;;;;;;;7.88;72.58;94819.75;4224320;28;20472;-60
2023/05/10 03:32:12;;;;;;;;;;;;;;;7.94;72.34;94804.38;4221337;28;20280;-61
2023/05/10 03:34:14;;;;;;;8.88;5.70;;;;;;;7.96;71.66;94812.06;4213613;28;20006;-60
2023/05/10 03:36:16;;;;;;;10.43;5.35;;;;;;;7.87;72.22;94811.13;4221571;28;20052;-60
2023/05/10 03:38:17;;;;;;;7.43;5.50;;;;;;;7.89;72.71;94819.59;4227395;28;20079;-60
2023/05/10 03:40:19;;;;;;;7.60;5.53;;;;;;;7.97;72.18;94811.91;4222222;27;20483;-58
2023/05/10 03:42:20;;;;;;;6.28;5.68;;;;;;;8.02;72.05;94808.06;4226962;28;20067;-58
2023/05/10 03:44:22;;;;;;;6.95;5.63;;;;;;;8.02;71.32;94814.09;4222936;28;20078;-60
2023/05/10 03:46:24;;;;;;;6.85;5.70;;;;;;;7.87;71.51;94818.94;4222956;28;20679;-60
2023/05/10 03:48:25;;;;;;;7.43;5.60;;;;;;;7.89;71.69;94824.81;4225426;28;20052;-60
2023/05/10 03:50:27;;;;;;;7.22;5.68;;;;;;;7.89;70.95;94816.19;4222054;28;20044;-60
2023/05/10 03:52:28;;;;;;;7.25;5.65;;;;;;;7.91;71.11;94825.50;4215086;28;20449;-61
2023/05/10 03:54:30;;;;;;;6.65;5.93;;;;;;;8.04;71.48;94829.59;4219097;28;20139;-60
2023/05/10 03:56:32;;;;;;;6.38;5.43;;;;;;;8.17;70.75;94830.13;4222561;28;20052;-59
2023/05/10 03:58:33;;;;;;;7.03;5.40;;;;;;;8.22;69.88;94830.53;4220148;28;20489;-58
2023/05/10 04:00:35;;;;;;;9.32;5.40;;;;;;;8.24;69.71;94827.78;4222773;28;20043;-61
2023/05/10 04:02:37;;;;;;;7.18;4.78;;;;;;;8.15;70.09;94830.28;4218999;28;20156;-61
2023/05/10 04:04:39;;;;;;;8.38;5.85;;;;;;;8.18;69.63;94829.19;4212710;28;20485;-60
2023/05/10 04:06:40;;;;;;;6.65;5.45;;;;;;;8.28;70.38;94836.97;4211241;28;20106;-58
2023/05/10 04:08:42;;;;;;;6.07;5.15;;;;;;;8.11;69.45;94843.72;4214453;28;20093;-61
2023/05/10 04:10:44;;;;;;;7.95;5.93;;;;;;;8.14;69.15;94841.66;4226009;28;20044;-61
2023/05/10 04:12:45;;;;;;;7.22;5.40;;;;;;;8.23;69.15;94844.41;4225612;28;20075;-61
2023/05/10 04:14:47;;;;;;;6.10;5.38;;;;;;;8.26;69.29;94836.28;4226962;28;20512;-60
2023/05/10 04:16:48;;;;;;;6.32;5.60;;;;;;;8.15;69.75;94840.72;4223821;28;20129;-59
2023/05/10 04:18:50;;;;;;;7.30;6.28;;;;;;;8.11;70.78;94835.91;4223713;28;20048;-58
2023/05/10 04:20:52;;;;;;;6.15;5.38;;;;;;;8.19;70.61;94839.47;4225233;28;20151;-59
2023/05/10 04:22:53;;;;;;;6.70;5.28;;;;;;;8.27;69.96;94843.16;4216588;28;20079;-59
2023/05/10 04:24:55;;;;;;;6.55;5.40;;;;;;;8.31;70.44;94849.75;4224552;28;20454;-61
2023/05/10 04:26:56;;;;;;;6.28;5.18;;;;;;;8.36;69.95;94855.34;4219362;28;20100;-60
2023/05/10 04:28:58;;;;;;;9.18;6.18;;;;;;;8.32;69.77;94840.94;4216627;28;20051;-61
2023/05/10 04:31:04;;;;;;;8.82;5.53;;;;;;;8.36;70.17;94837.09;4215895;28;20457;-61
2023/05/10 04:33:06;;;;;;;8.05;5.43;;;;;;;8.35;69.41;94845.91;4223478;28;20429;-61
2023/05/10 04:35:09;;;;;;;8.50;5.22;;;;;;;8.34;69.74;94836.41;4224541;28;20660;-60
2023/05/10 04:37:11;;;;;;;;;;;;;;;8.30;69.26;94846.31;4214621;28;20357;-62
2023/05/10 04:39:13;;;;;;;6.18;5.47;;;;;;;8.26;70.23;94851.94;4221237;28;20647;-61
2023/05/10 04:41:15;;;;;;;7.95;5.68;;;;;;;8.15;70.33;94840.72;4221542;28;20044;-64
2023/05/10 04:43:16;;;;;;;7.10;5.70;;;;;;;8.19;70.81;94847.31;4221229;28;20532;-61
2023/05/10 04:45:18;;;;;;;7.80;5.40;;;;;;;8.18;70.18;94835.22;4216130;28;20116;-59
2023/05/10 04:47:20;;;;;;;8.73;5.90;;;;;;;8.32;70.90;94851.38;4210788;28;20105;-59
2023/05/10 04:49:21;;;;;;;6.78;6.07;;;;;;;8.25;70.60;94843.28;4219286;28;20144;-61
2023/05/10 04:51:23;;;;;;;7.35;5.47;;;;;;;8.30;70.28;94840.25;4220629;28;20078;-60
2023/05/10 04:53:25;;;;;;;7.60;6.53;;;;;;;8.24;70.01;94840.81;4220794;28;20443;-63
2023/05/10 04:55:27;;;;;;;8.02;6.30;;;;;;;8.34;71.01;94852.88;4218277;28;20538;-61
2023/05/10 04:57:28;;;;;;;7.68;6.65;;;;;;;8.38;70.29;94830.75;4225055;28;20048;-61
2023/05/10 04:59:30;;;;;;;7.70;6.55;;;;;;;8.47;70.61;94836.94;4217376;28;20535;-62
2023/05/10 05:01:32;;;;;;;6.88;6.13;;;;;;;8.53;70.97;94828.53;4221583;28;20052;-62
2023/05/10 05:03:34;;;;;;;7.55;6.75;;;;;;;8.62;70.69;94845.13;4219943;28;20105;-62
2023/05/10 05:05:35;;;;;;;7.63;6.82;;;;;;;8.66;70.68;94843.06;4211860;28;20044;-60
2023/05/10 05:07:38;;;;;;;7.80;6.72;;;;;;;8.61;71.16;94846.94;4218694;28;20652;-59
2023/05/10 05:09:39;;;;;;;8.23;6.63;;;;;;;8.54;70.67;94840.63;4222590;27;20048;-63
2023/05/10 05:11:41;;;;;;;10.50;6.40;;;;;;;8.51;70.68;94847.94;4223587;28;20174;-62
2023/05/10 05:13:43;;;;;;;7.78;5.78;;;;;;;8.47;70.25;94854.41;4222966;28;20431;-62
2023/05/10 05:15:44;;;;;;;7.97;6.47;;;;;;;8.47;70.39;94855.22;4227634;28;20048;-61
2023/05/10 05:17:46;;;;;;;8.48;6.70;;;;;;;8.55;70.73;94847.50;4227696;28;20073;-62
2023/05/10 05:19:48;;;;;;;7.20;6.15;;;;;;;8.51;70.26;94851.34;4222540;28;20134;-61
2023/05/10 05:21:50;;;;;;;11.20;6.68;;;;;;;8.55;70.48;94847.50;4223414;28;20048;-62
2023/05/10 05:23:51;;;;;;;8.55;6.90;;;;;;;8.65;70.75;94857.06;4224077;28;20043;-63
2023/05/10 05:25:53;;;;;;;8.20;6.80;;;;;;;8.70;70.55;94862.72;4223633;28;20056;-61
2023/05/10 05:27:55;;;;;;;8.40;6.80;;;;;;;8.70;70.42;94854.88;4222919;28;20044;-62
2023/05/10 05:29:56;;;;;;;9.85;6.95;;;;;;;8.73;71.03;94855.41;4223457;28;20091;-63
2023/05/10 05:31:58;;;;;;;8.70;7.10;;;;;;;8.79;70.90;94861.84;4218881;28;20044;-61
2023/05/10 05:34:00;;;;;;;8.60;6.95;;;;;;;8.81;71.39;94857.28;4214962;28;20465;-60
2023/05/10 05:36:03;;;;;;;10.05;7.97;;;;;;;8.77;70.92;94866.38;4221013;28;20096;-61
2023/05/10 05:38:05;;;;;;;9.35;7.90;;;;;;;8.78;71.08;94868.03;4225598;28;20093;-61
2023/05/10 05:40:08;;;;;;;9.32;7.53;;;;;;;8.77;71.52;94867.19;4221411;28;20649;-62
2023/05/10 05:42:10;;;;;;;10.00;8.05;;;;;;;8.84;71.52;94867.47;4221652;27;20052;-62
2023/05/10 05:44:11;;;;;;;10.25;7.35;;;;;;;8.81;71.19;94865.94;4219129;28;20052;-63
2023/05/10 05:46:13;;;;;;;8.32;7.50;;;;;;;8.83;70.76;94876.25;4224780;28;20103;-62
2023/05/10 05:48:14;;;;;;;8.55;7.65;;;;;;;8.90;72.11;94877.31;4221332;28;20058;-61
2023/05/10 05:50:16;;;;;;;9.07;7.95;;;;;;;8.92;71.60;94877.19;4213671;28;20079;-62
2023/05/10 05:52:18;;;;;;;12.30;8.88;;;;;;;8.95;70.98;94880.34;4210360;28;20130;-61
2023/05/10 05:54:19;;;;;;;8.30;7.38;;;;;;;8.97;70.85;94882.78;4219140;28;20044;-61
2023/05/10 05:56:24;;;;;;;11.77;8.63;;;;;;;8.94;71.09;94886.50;4221534;28;20047;-65
2023/05/10 05:58:26;;;;;;;10.82;8.38;;;;;;;9.05;71.50;94880.28;4211774;28;20393;-62
2023/05/10 06:00:28;;;;;;;10.70;8.73;;;;;;;9.05;71.10;94879.47;4222499;28;20070;-60
2023/05/10 06:02:30;;;;;;;9.55;7.80;;;;;;;9.07;72.01;94888.78;4210702;28;20495;-60
2023/05/10 06:04:32;;;;;;;11.68;8.80;;;;;;;9.00;71.83;94885.13;4220217;28;20043;-62
2023/05/10 06:06:33;;;;;;;12.60;9.00;;;;;;;9.08;71.94;94881.78;4225467;28;20098;-60
2023/05/10 06:08:35;;;;;;;10.52;8.57;;;;;;;9.14;71.47;94884.66;4223311;28;20048;-61
2023/05/10 06:10:37;;;;;;;11.35;8.88;;;;;;;9.17;72.21;94883.53;4220144;28;20048;-61
2023/05/10 06:12:38;;;;;;;11.52;9.45;;;;;;;9.25;71.89;94891.47;4216942;28;20047;-59
2023/05/10 06:14:40;;;;;;;10.50;8.93;;;;;;;9.25;71.21;94888.00;4225959;28;20071;-60
2023/05/10 06:16:42;;;;;;;12.45;9.85;;;;;;;9.35;71.37;94897.44;4214066;28;20098;-59
2023/05/10 06:18:43;;;;;;;12.13;9.40;;;;;;;9.33;71.83;94888.94;4221207;28;20051;-60
2023/05/10 06:20:45;;;;;;;14.07;9.88;;;;;;;9.48;71.71;94896.28;4227802;28;20409;-60
2023/05/10 06:22:47;;;;;;;10.95;9.48;;;;;;;9.47;71.01;94886.81;4221206;28;20058;-60
2023/05/10 06:24:49;;;;;;;14.07;9.48;;;;;;;9.25;71.03;94895.84;4220391;28;20090;-59
2023/05/10 06:26:51;;;;;;;13.07;9.45;;;;;;;9.35;71.37;94891.41;4223716;28;20524;-58
2023/05/10 06:28:52;;;;;;;13.43;11.43;;;;;;;9.33;71.89;94898.56;4222743;28;20127;-60
2023/05/10 06:30:54;;;;;;;11.77;10.07;;;;;;;9.50;71.77;94904.81;4219943;28;20609;-59
2023/05/10 06:32:55;;;;;;;13.07;9.88;;;;;;;9.45;70.61;94905.25;4222478;28;20528;-61
2023/05/10 06:34:57;;;;;;;10.70;9.60;;;;;;;9.43;71.20;94905.38;4226878;28;20043;-59
2023/05/10 06:36:59;;;;;;;13.27;10.02;;;;;;;9.48;71.22;94897.09;4225369;28;20130;-60
2023/05/10 06:39:00;;;;;;;10.48;9.32;;;;;;;9.54;70.84;94895.69;4223955;28;20408;-59
2023/05/10 06:41:02;;;;;;;11.85;9.25;;;;;;;9.58;71.70;94897.88;4221412;28;20247;-59
2023/05/10 06:43:04;;;;;;;15.27;10.25;;;;;;;9.69;71.09;94896.81;4201334;28;20433;-59
2023/05/10 06:45:06;;;;;;;12.52;10.07;;;;;;;9.80;70.32;94906.25;4227860;28;20523;-59
2023/05/10 06:47:08;;;;;;;11.75;9.73;;;;;;;9.88;69.79;94906.34;4225240;28;20105;-60
2023/05/10 06:49:10;;;;;;;12.65;9.52;;;;;;;10.00;70.44;94896.44;4225055;28;20058;-59
2023/05/10 06:51:12;;;;;;;14.00;9.00;;;;;;;10.02;68.72;94894.50;4225125;28;20084;-59
2023/05/10 06:53:13;;;;;;;15.73;9.65;;;;;;;10.03;69.58;94898.78;4217941;28;20059;-61
2023/05/10 06:55:15;;;;;;;11.82;10.10;;;;;;;10.02;68.93;94894.50;4228215;28;20501;-60
2023/05/10 06:57:17;;;;;;;10.20;8.68;;;;;;;10.08;67.83;94899.13;4207793;27;20052;-61
2023/05/10 06:59:32;;;;;;;14.55;9.77;;;;;;;10.13;67.62;94907.38;4206954;28;20086;-62
2023/05/10 07:01:34;;;;;;;14.40;9.77;;;;;;;9.95;67.58;94898.69;4219614;28;20433;-62
2023/05/10 07:03:35;;;;;;;12.45;10.10;;;;;;;9.86;68.36;94915.31;4212907;28;20343;-61
2023/05/10 07:05:37;;;;;;;11.80;9.35;;;;;;;9.84;68.45;94908.41;4215027;28;20660;-61
2023/05/10 07:07:39;;;;;;;11.82;9.93;;;;;;;9.80;68.23;94912.28;4212761;28;20078;-57
2023/05/10 07:09:41;;;;;;;10.75;9.60;;;;;;;9.92;68.55;94922.56;4223496;28;20056;-61
2023/05/10 07:11:43;;;;;;;11.45;9.80;;;;;;;9.91;67.28;94913.88;4229407;28;20051;-60
2023/05/10 07:13:46;;;;;;;13.13;9.35;;;;;;;9.86;67.95;94910.06;4226939;28;20048;-60
2023/05/10 07:15:48;;;;;;;12.60;10.05;;;;;;;9.92;67.56;94910.31;4223816;28;20040;-61
2023/05/10 07:17:49;;;;;;;12.82;9.68;;;;;;;9.99;67.70;94913.13;4211758;28;20072;-61
2023/05/10 07:19:51;;;;;;;11.90;9.45;;;;;;;9.93;67.67;94911.13;4215282;28;20052;-62
2023/05/10 07:21:53;;;;;;;12.35;10.10;;;;;;;9.99;67.26;94907.91;4214719;28;20049;-60
2023/05/10 07:23:54;;;;;;;13.25;9.05;;;;;;;9.76;67.77;94916.19;4229564;28;20083;-61
2023/05/10 07:25:57;;;;;;;11.38;9.57;;;;;;;9.77;67.97;94925.69;4229759;27;20075;-61
2023/05/10 07:27:59;;;;;;;10.02;8.88;;;;;;;9.82;68.06;94926.06;4212711;28;20050;-61
2023/05/10 07:30:01;;;;;;;11.40;9.82;;;;;;;9.90;67.38;94927.13;4212886;28;20733;-60
2023/05/10 07:32:03;;;;;;;10.65;8.98;;;;;;;9.96;67.40;94921.28;4218623;28;20135;-63
2023/05/10 07:34:04;;;;;;;11.18;8.80;;;;;;;9.76;67.22;94929.25;4228726;28;20062;-62
2023/05/10 07:36:06;;;;;;;12.43;10.30;;;;;;;9.82;67.47;94931.28;4227762;28;20055;-62
2023/05/10 07:38:08;;;;;;;12.65;9.82;;;;;;;9.94;67.56;94931.91;4227745;28;20055;-61
2023/05/10 07:40:10;;;;;;;10.77;9.13;;;;;;;9.81;67.22;94928.84;4228286;28;20104;-62
2023/05/10 07:42:11;;;;;;;14.07;10.32;;;;;;;9.71;67.90;94926.28;4228443;28;20313;-62
2023/05/10 07:44:13;;;;;;;11.00;8.75;;;;;;;9.75;66.88;94925.00;4216654;28;20083;-62
2023/05/10 07:46:15;;;;;;;12.45;9.98;;;;;;;9.79;67.53;94928.97;4225888;28;20121;-63
2023/05/10 07:48:16;;;;;;;12.82;10.80;;;;;;;9.94;68.63;94918.00;4226136;27;20059;-62
2023/05/10 07:50:18;;;;;;;11.15;9.95;;;;;;;10.02;67.27;94931.16;4227644;27;20583;-62
2023/05/10 07:52:19;;;;;;;11.63;9.88;;;;;;;10.08;66.40;94922.69;4226471;28;20067;-59
2023/05/10 07:54:23;;;;;;;12.77;10.20;;;;;;;10.13;66.29;94930.09;4224036;28;20130;-60
2023/05/10 07:56:29;;;;;;;12.48;10.05;;;;;;;10.21;66.49;94933.59;4219328;28;20054;-61
2023/05/10 07:58:31;;;;;;;14.02;10.20;;;;;;;10.14;66.03;94937.00;4226222;28;20047;-62
2023/05/10 08:00:32;;;;;;;13.50;11.35;;;;;;;10.12;66.37;94941.56;4224275;28;20043;-63
2023/05/10 08:02:35;;;;;;;21.33;10.93;;;;;;;10.13;66.50;94930.94;4204080;28;20097;-62
2023/05/10 08:04:36;;;;;;;11.88;10.65;;;;;;;10.13;65.78;94924.84;4224915;28;20039;-61
2023/05/10 08:06:39;;;;;;;14.25;11.77;;;;;;;10.10;66.31;94933.84;4213252;28;20055;-59
2023/05/10 08:08:41;;;;;;;12.48;9.77;;;;;;;10.10;65.25;94939.06;4221976;28;20071;-59
2023/05/10 08:10:43;;;;;;;12.05;10.80;;;;;;;10.15;66.12;94934.22;4203529;28;20043;-60
2023/05/10 08:12:45;;;;;;;14.60;10.55;;;;;;;10.28;65.83;94940.84;4227965;28;20156;-59
2023/05/10 08:14:47;;;;;;;13.32;11.30;;;;;;;10.42;65.96;94941.19;4217542;28;20086;-60
2023/05/10 08:16:48;;;;;;;12.13;10.85;;;;;;;10.43;65.70;94934.13;4221190;28;20051;-60
2023/05/10 08:18:50;;;;;;;11.60;9.77;;;;;;;10.30;65.24;94918.81;4224478;28;20051;-61
2023/05/10 08:20:52;;;;;;;11.75;9.35;;;;;;;10.32;65.02;94937.00;4224827;28;20044;-61
2023/05/10 08:22:54;;;;;;;13.10;10.32;;;;;;;10.30;65.45;94923.22;4222110;28;20416;-61
2023/05/10 08:24:55;;;;;;;16.25;11.23;;;;;;;10.46;64.96;94933.84;4221420;28;20097;-60
2023/05/10 08:26:57;;;;;;;12.38;9.57;;;;;;;10.41;65.52;94936.94;4211859;28;20050;-61
2023/05/10 08:28:58;;;;;;;18.48;10.45;;;;;;;10.47;65.71;94935.47;4219094;28;20056;-62
2023/05/10 08:31:00;;;;;;;15.90;10.65;;;;;;;10.68;66.14;94931.69;4219834;28;20479;-62
2023/05/10 08:33:02;;;;;;;12.05;10.57;;;;;;;10.77;65.79;94943.88;4220655;28;20452;-61
2023/05/10 08:35:04;;;;;;;13.57;9.90;;;;;;;10.76;65.33;94939.63;4208026;28;20044;-62
2023/05/10 08:37:06;;;;;;;11.82;10.48;;;;;;;10.84;65.80;94937.03;4215441;28;20191;-61
2023/05/10 08:39:08;;;;;;;13.35;10.02;;;;;;;10.64;65.78;94942.47;4219942;28;20091;-59
2023/05/10 08:41:27;;;;;;;12.88;10.68;;;;;;;10.60;67.26;94941.16;4220555;28;20083;-61
2023/05/10 08:43:29;;;;;;;18.15;11.32;;;;;;;10.59;67.52;94939.50;4216194;28;20458;-60
2023/05/10 08:45:35;;;;;;;11.88;10.50;;;;;;;10.75;67.08;94945.81;4218300;28;20141;-62
2023/05/10 08:47:37;;;;;;;13.57;10.15;;;;;;;10.92;66.80;94939.69;4209545;28;20157;-61
2023/05/10 08:49:40;;;;;;;12.20;10.93;;;;;;;10.98;66.62;94939.09;4209821;28;20557;-60
2023/05/10 08:51:44;;;;;;;12.18;9.95;;;;;;;10.99;65.68;94937.28;4209514;28;20048;-59
2023/05/10 08:53:46;;;;;;;12.68;10.20;;;;;;;11.03;66.53;94942.09;4211188;28;20483;-60
2023/05/10 08:55:48;;;;;;;11.25;9.98;;;;;;;11.03;66.29;94936.84;4218547;28;20044;-60
2023/05/10 08:57:50;;;;;;;10.43;9.32;;;;;;;10.90;66.06;94940.84;4211189;28;20040;-61
2023/05/10 08:59:51;;;;;;;12.00;10.80;;;;;;;10.92;67.89;94938.88;4218242;28;20047;-62
2023/05/10 09:01:53;;;;;;;12.27;9.77;;;;;;;10.94;66.85;94931.69;4213925;28;20048;-62
2023/05/10 09:03:55;;;;;;;13.43;9.68;;;;;;;10.90;66.48;94928.53;4214463;28;20047;-61
2023/05/10 09:05:57;;;;;;;11.65;10.40;;;;;;;10.85;67.53;94936.06;4217181;28;20047;-60
2023/05/10 09:08:00;;;;;;;12.77;9.80;;;;;;;10.97;66.77;94934.00;4221182;28;20082;-60
2023/05/10 09:10:02;;;;;;;11.30;9.60;;;;;;;10.90;66.12;94943.47;4222394;28;20085;-61
2023/05/10 09:12:04;;;;;;;11.25;10.00;;;;;;;10.71;65.95;94941.84;4219435;28;20048;-59
2023/05/10 09:14:05;;;;;;;15.18;11.32;;;;;;;10.71;67.34;94944.47;4212957;28;20087;-62
2023/05/10 09:16:07;;;;;;;14.10;10.80;;;;;;;10.75;67.50;94937.97;4215197;28;20504;-61
2023/05/10 09:18:21;;;;;;;;;;;;;;;10.68;67.52;94944.81;4220793;28;20482;-62
2023/05/10 09:20:23;;;;;;;11.60;10.45;;;;;;;10.69;67.58;94934.19;4213053;28;20329;-62
2023/05/10 09:22:25;;;;;;;16.15;11.05;;;;;;;10.59;67.52;94929.03;4211098;28;20485;-62
2023/05/10 09:24:28;;;;;;;14.30;11.45;;;;;;;10.65;67.18;94933.66;4212014;28;20056;-60
2023/05/10 09:26:30;;;;;;;15.52;11.32;;;;;;;10.78;66.82;94938.47;4212752;28;20047;-62
2023/05/10 09:28:52;;;;;;;14.82;11.20;;;;;;;10.89;67.38;94928.72;4220833;28;20043;-61
2023/05/10 09:30:55;;;;;;;18.80;11.07;;;;;;;10.97;66.46;94926.13;4217928;28;20055;-63
2023/05/10 09:32:58;;;;;;;15.80;11.35;;;;;;;10.98;66.59;94931.22;4220798;28;20055;-62
2023/05/10 09:35:09;;;;;;;23.92;11.43;;;;;;;11.02;65.77;94935.19;4218166;28;20040;-61
2023/05/10 09:37:11;;;;;;;12.40;11.10;;;;;;;11.12;65.80;94936.84;4218902;28;20048;-62
2023/05/10 09:39:13;;;;;;;12.35;11.00;;;;;;;11.00;65.75;94934.50;4218568;28;20054;-62
2023/05/10 09:41:22;;;;;;;17.55;11.50;;;;;;;11.13;66.07;94931.47;4221464;28;20052;-62